Summary for MDHALE1

Southwest Baltimore Co., Halethorpe, MD 21227
Join the PWSweather.com Network
View data in metric units
Latest Conditions
Updated 6:30:16 AM EDT Tuesday, Jul 29, 2014
Data Currently Today's Max Today's Min Today's Average
Temperature 61.0°F16.1°C 69.0°F20.6°C 61.0°F16.1°C 64.4°F18.0°C
Dew Point 57.1°F13.9°C 61.1°F16.2°C 56.9°F13.8°C 58.7°F14.8°C
Winds Calm Calm 1.3 mph NW2.1 kmh NW CalmCalm 0.2 mph0.3 kmh
Wind Gusts -- 5.7 mph9.2 kmh -- 1.0 mph1.6 kmh
Humidity 87% 87% 76% 82%
Pressure 29.87 in1011.5 mb 29.87 in1011.5 mb 29.78 in1008.5 mb 29.82 in1009.8 mb
Precipitation 0.00 in0.0 mm - - 0.00 in0.0 mm
Trends
 
Station Profile
Southwest Baltimore Co.Halethorpe, MD 21227

Lat: 39.236, Lon: -76.697
Elevation: 86
Station Type: Davis Vantage Pro2+

http://home.comcast.net/~halethorpe_weather/index.html

Detailed Summary for Tue, Jul 29, 2014
Hour (EDT) Temperature Dew Point Humidity Winds Wind Gusts Pressure Precip Precip Rate Daily Precip Total
06:30 AM 61.0°F16.1°C 57.1°F13.9°C 87% Calm Calm -- 29.87 in1011.5 mb 0.00 in0.0 mm 0.00 in/hr0.0 mm/hr 0.00 in0.0 mm
06:15 AM 61.1°F16.2°C 56.9°F13.8°C 86% Calm Calm -- 29.86 in1011.2 mb 0.00 in0.0 mm 0.00 in/hr0.0 mm/hr 0.00 in0.0 mm
06:00 AM 61.2°F16.2°C 57.0°F13.9°C 86% Calm Calm -- 29.85 in1010.8 mb 0.00 in0.0 mm 0.00 in/hr0.0 mm/hr 0.00 in0.0 mm
05:45 AM 61.6°F16.4°C 57.0°F13.9°C 85% Calm Calm -- 29.85 in1010.8 mb 0.00 in0.0 mm 0.00 in/hr0.0 mm/hr 0.00 in0.0 mm
05:30 AM 61.9°F16.6°C 57.3°F14.1°C 85% Calm Calm 3.4 mph5.5 kmh 29.85 in1010.8 mb 0.00 in0.0 mm 0.00 in/hr0.0 mm/hr 0.00 in0.0 mm
05:15 AM 62.1°F16.7°C 57.5°F14.2°C 85% Calm Calm -- 29.84 in1010.5 mb 0.00 in0.0 mm 0.00 in/hr0.0 mm/hr 0.00 in0.0 mm
05:00 AM 62.2°F16.8°C 57.6°F14.2°C 85% Calm Calm -- 29.83 in1010.2 mb 0.00 in0.0 mm 0.00 in/hr0.0 mm/hr 0.00 in0.0 mm
04:45 AM 62.2°F16.8°C 57.3°F14.1°C 84% 1.3 mph NW2.1 kmh NW 3.4 mph5.5 kmh 29.83 in1010.2 mb 0.00 in0.0 mm 0.00 in/hr0.0 mm/hr 0.00 in0.0 mm
04:30 AM 62.5°F16.9°C 57.6°F14.2°C 84% 0.9 mph NW1.4 kmh NW 3.4 mph5.5 kmh 29.83 in1010.2 mb 0.00 in0.0 mm 0.00 in/hr0.0 mm/hr 0.00 in0.0 mm
04:15 AM 62.8°F17.1°C 57.9°F14.4°C 84% Calm Calm -- 29.82 in1009.8 mb 0.00 in0.0 mm 0.00 in/hr0.0 mm/hr 0.00 in0.0 mm
04:00 AM 63.2°F17.3°C 57.9°F14.4°C 83% Calm Calm -- 29.82 in1009.8 mb 0.00 in0.0 mm 0.00 in/hr0.0 mm/hr 0.00 in0.0 mm
03:45 AM 63.5°F17.5°C 58.2°F14.6°C 83% Calm Calm -- 29.82 in1009.8 mb 0.00 in0.0 mm 0.00 in/hr0.0 mm/hr 0.00 in0.0 mm
03:30 AM 63.7°F17.6°C 58.1°F14.5°C 82% Calm Calm -- 29.81 in1009.5 mb 0.00 in0.0 mm 0.00 in/hr0.0 mm/hr 0.00 in0.0 mm
03:15 AM 64.2°F17.9°C 58.6°F14.8°C 82% Calm Calm -- 29.81 in1009.5 mb 0.00 in0.0 mm 0.00 in/hr0.0 mm/hr 0.00 in0.0 mm
03:00 AM 64.5°F18.1°C 58.5°F14.7°C 81% Calm Calm -- 29.81 in1009.5 mb 0.00 in0.0 mm 0.00 in/hr0.0 mm/hr 0.00 in0.0 mm
02:45 AM 64.8°F18.2°C 58.8°F14.9°C 81% Calm Calm -- 29.81 in1009.5 mb 0.00 in0.0 mm 0.00 in/hr0.0 mm/hr 0.00 in0.0 mm
02:30 AM 65.0°F18.3°C 59.0°F15.0°C 81% Calm Calm -- 29.81 in1009.5 mb 0.00 in0.0 mm 0.00 in/hr0.0 mm/hr 0.00 in0.0 mm
02:15 AM 65.3°F18.5°C 59.3°F15.2°C 81% 0.6 mph NNE1.0 kmh NNE 1.1 mph1.8 kmh 29.80 in1009.1 mb 0.00 in0.0 mm 0.00 in/hr0.0 mm/hr 0.00 in0.0 mm
02:00 AM 65.8°F18.8°C 59.8°F15.4°C 81% Calm Calm -- 29.80 in1009.1 mb 0.00 in0.0 mm 0.00 in/hr0.0 mm/hr 0.00 in0.0 mm
01:45 AM 66.1°F18.9°C 59.7°F15.4°C 80% Calm Calm -- 29.80 in1009.1 mb 0.00 in0.0 mm 0.00 in/hr0.0 mm/hr 0.00 in0.0 mm
01:30 AM 66.4°F19.1°C 60.0°F15.6°C 80% 0.1 mph NNE0.2 kmh NNE -- 29.79 in1008.8 mb 0.00 in0.0 mm 0.00 in/hr0.0 mm/hr 0.00 in0.0 mm
01:15 AM 66.7°F19.3°C 60.3°F15.7°C 80% Calm Calm -- 29.79 in1008.8 mb 0.00 in0.0 mm 0.00 in/hr0.0 mm/hr 0.00 in0.0 mm
01:00 AM 67.1°F19.5°C 60.7°F15.9°C 80% 0.1 mph NW0.2 kmh NW -- 29.79 in1008.8 mb 0.00 in0.0 mm 0.00 in/hr0.0 mm/hr 0.00 in0.0 mm
12:45 AM 67.5°F19.7°C 60.8°F16.0°C 79% 0.6 mph NW1.0 kmh NW 4.6 mph7.4 kmh 29.79 in1008.8 mb 0.00 in0.0 mm 0.00 in/hr0.0 mm/hr 0.00 in0.0 mm
12:30 AM 68.0°F20.0°C 60.9°F16.1°C 78% 0.4 mph NW0.6 kmh NW 3.4 mph5.5 kmh 29.79 in1008.8 mb 0.00 in0.0 mm 0.00 in/hr0.0 mm/hr 0.00 in0.0 mm
12:15 AM 68.5°F20.3°C 61.0°F16.1°C 77% 1.2 mph N1.9 kmh N 2.3 mph3.7 kmh 29.78 in1008.5 mb 0.00 in0.0 mm 0.00 in/hr0.0 mm/hr 0.00 in0.0 mm
12:01 AM 69.0°F20.6°C 61.1°F16.2°C 76% 0.8 mph NNW1.3 kmh NNW 5.7 mph9.2 kmh 29.79 in1008.8 mb 0.00 in0.0 mm 0.00 in/hr0.0 mm/hr 0.00 in0.0 mm
WeatherForYou.com, LLC is not responsible for any damages or problems caused by this service. Current weather conditions are obtained from the closest station including government and personal stations which may have varying degrees of accuracy. Weather forecasts are derived from the NOAA NDFD and obtained through HAMweather's Aeris Weather API. Like all things, this site belongs to Jesus Christ... He just trusts me to maintain it. If you have any questions or comments email webmaster@weatherforyou.com

Copyright © 2014, WeatherForYou.com LLC. All rights reserved.